sensor_id;sensor_type;location;lat;lon;timestamp;P1;durP1;ratioP1;P2;durP2;ratioP2
18159;SDS011;9205;52.032;4.314;2023-02-24T00:02:14;6.00;;;1.30;;
18159;SDS011;9205;52.032;4.314;2023-02-24T00:04:45;4.50;;;1.07;;
18159;SDS011;9205;52.032;4.314;2023-02-24T00:07:19;1.70;;;0.87;;
18159;SDS011;9205;52.032;4.314;2023-02-24T00:09:47;1.37;;;0.80;;
18159;SDS011;9205;52.032;4.314;2023-02-24T00:12:15;5.00;;;0.97;;
18159;SDS011;9205;52.032;4.314;2023-02-24T00:14:44;2.43;;;0.73;;
18159;SDS011;9205;52.032;4.314;2023-02-24T00:17:18;3.00;;;1.20;;
18159;SDS011;9205;52.032;4.314;2023-02-24T00:19:50;2.00;;;1.17;;
18159;SDS011;9205;52.032;4.314;2023-02-24T00:22:17;1.80;;;0.83;;
18159;SDS011;9205;52.032;4.314;2023-02-24T00:25:15;4.97;;;1.07;;
18159;SDS011;9205;52.032;4.314;2023-02-24T00:27:51;4.47;;;1.07;;
18159;SDS011;9205;52.032;4.314;2023-02-24T00:30:26;1.80;;;1.10;;
18159;SDS011;9205;52.032;4.314;2023-02-24T00:32:57;2.97;;;1.07;;
18159;SDS011;9205;52.032;4.314;2023-02-24T00:35:30;5.03;;;0.97;;
18159;SDS011;9205;52.032;4.314;2023-02-24T00:38:00;2.07;;;0.93;;
18159;SDS011;9205;52.032;4.314;2023-02-24T00:40:29;4.10;;;1.10;;
18159;SDS011;9205;52.032;4.314;2023-02-24T00:43:01;4.63;;;0.80;;
18159;SDS011;9205;52.032;4.314;2023-02-24T00:45:37;3.20;;;1.20;;
18159;SDS011;9205;52.032;4.314;2023-02-24T00:50:54;1.40;;;0.70;;
18159;SDS011;9205;52.032;4.314;2023-02-24T00:53:22;2.57;;;0.90;;
18159;SDS011;9205;52.032;4.314;2023-02-24T00:55:57;5.03;;;0.80;;
18159;SDS011;9205;52.032;4.314;2023-02-24T00:58:33;2.93;;;0.87;;
18159;SDS011;9205;52.032;4.314;2023-02-24T01:01:23;2.77;;;0.80;;
18159;SDS011;9205;52.032;4.314;2023-02-24T01:03:55;3.60;;;0.90;;
18159;SDS011;9205;52.032;4.314;2023-02-24T01:06:24;7.83;;;1.23;;
18159;SDS011;9205;52.032;4.314;2023-02-24T01:09:03;4.17;;;0.90;;
18159;SDS011;9205;52.032;4.314;2023-02-24T01:11:58;0.60;;;0.60;;
18159;SDS011;9205;52.032;4.314;2023-02-24T01:14:52;4.97;;;1.10;;
18159;SDS011;9205;52.032;4.314;2023-02-24T01:17:20;4.07;;;0.80;;
18159;SDS011;9205;52.032;4.314;2023-02-24T01:19:51;2.77;;;1.00;;
18159;SDS011;9205;52.032;4.314;2023-02-24T01:22:41;2.47;;;1.03;;
18159;SDS011;9205;52.032;4.314;2023-02-24T01:25:14;2.73;;;0.80;;
18159;SDS011;9205;52.032;4.314;2023-02-24T01:27:44;2.20;;;1.07;;
18159;SDS011;9205;52.032;4.314;2023-02-24T01:30:14;4.10;;;0.80;;
18159;SDS011;9205;52.032;4.314;2023-02-24T01:32:47;3.77;;;0.90;;
18159;SDS011;9205;52.032;4.314;2023-02-24T01:35:19;3.60;;;0.97;;
18159;SDS011;9205;52.032;4.314;2023-02-24T01:37:48;2.37;;;0.80;;
18159;SDS011;9205;52.032;4.314;2023-02-24T01:40:17;4.27;;;0.93;;
18159;SDS011;9205;52.032;4.314;2023-02-24T01:42:45;2.00;;;0.67;;
18159;SDS011;9205;52.032;4.314;2023-02-24T01:45:16;2.60;;;0.90;;
18159;SDS011;9205;52.032;4.314;2023-02-24T01:47:53;1.73;;;1.00;;
18159;SDS011;9205;52.032;4.314;2023-02-24T01:50:28;0.60;;;0.60;;
18159;SDS011;9205;52.032;4.314;2023-02-24T01:52:58;5.97;;;1.10;;
18159;SDS011;9205;52.032;4.314;2023-02-24T01:55:31;4.57;;;0.80;;
18159;SDS011;9205;52.032;4.314;2023-02-24T01:58:15;2.50;;;0.70;;
18159;SDS011;9205;52.032;4.314;2023-02-24T02:00:49;0.70;;;0.70;;
18159;SDS011;9205;52.032;4.314;2023-02-24T02:03:24;2.37;;;1.13;;
18159;SDS011;9205;52.032;4.314;2023-02-24T02:11:57;1.80;;;0.60;;
18159;SDS011;9205;52.032;4.314;2023-02-24T02:14:30;1.17;;;0.70;;
18159;SDS011;9205;52.032;4.314;2023-02-24T02:17:07;0.87;;;0.70;;
18159;SDS011;9205;52.032;4.314;2023-02-24T02:23:24;1.07;;;0.80;;
18159;SDS011;9205;52.032;4.314;2023-02-24T02:26:25;0.73;;;0.70;;
18159;SDS011;9205;52.032;4.314;2023-02-24T02:29:55;3.70;;;1.00;;
18159;SDS011;9205;52.032;4.314;2023-02-24T02:36:40;5.67;;;0.83;;
18159;SDS011;9205;52.032;4.314;2023-02-24T02:39:23;4.30;;;0.77;;
18159;SDS011;9205;52.032;4.314;2023-02-24T02:42:05;11.63;;;0.90;;
18159;SDS011;9205;52.032;4.314;2023-02-24T02:44:47;0.70;;;0.70;;
18159;SDS011;9205;52.032;4.314;2023-02-24T02:47:25;2.10;;;0.70;;
18159;SDS011;9205;52.032;4.314;2023-02-24T02:50:06;2.30;;;1.23;;
18159;SDS011;9205;52.032;4.314;2023-02-24T02:52:45;4.53;;;0.70;;
18159;SDS011;9205;52.032;4.314;2023-02-24T02:55:22;1.80;;;0.80;;
18159;SDS011;9205;52.032;4.314;2023-02-24T02:58:01;1.07;;;0.60;;
18159;SDS011;9205;52.032;4.314;2023-02-24T03:00:35;2.00;;;0.70;;
18159;SDS011;9205;52.032;4.314;2023-02-24T03:03:22;4.63;;;0.80;;
18159;SDS011;9205;52.032;4.314;2023-02-24T03:05:55;1.00;;;0.70;;
18159;SDS011;9205;52.032;4.314;2023-02-24T03:08:33;2.20;;;1.00;;
18159;SDS011;9205;52.032;4.314;2023-02-24T03:11:08;3.53;;;0.90;;
18159;SDS011;9205;52.032;4.314;2023-02-24T03:13:42;1.13;;;1.00;;
18159;SDS011;9205;52.032;4.314;2023-02-24T03:16:15;3.03;;;0.90;;
18159;SDS011;9205;52.032;4.314;2023-02-24T03:18:49;1.50;;;0.83;;
18159;SDS011;9205;52.032;4.314;2023-02-24T03:21:27;3.00;;;1.10;;
18159;SDS011;9205;52.032;4.314;2023-02-24T03:24:00;3.17;;;0.83;;
18159;SDS011;9205;52.032;4.314;2023-02-24T03:26:39;2.93;;;0.70;;
18159;SDS011;9205;52.032;4.314;2023-02-24T03:29:18;2.23;;;0.87;;
18159;SDS011;9205;52.032;4.314;2023-02-24T03:31:58;0.87;;;0.60;;
18159;SDS011;9205;52.032;4.314;2023-02-24T03:34:34;0.77;;;0.60;;
18159;SDS011;9205;52.032;4.314;2023-02-24T03:37:21;6.10;;;1.00;;
18159;SDS011;9205;52.032;4.314;2023-02-24T03:39:57;2.20;;;0.70;;
18159;SDS011;9205;52.032;4.314;2023-02-24T03:42:36;5.00;;;0.80;;
18159;SDS011;9205;52.032;4.314;2023-02-24T03:45:07;3.27;;;0.63;;
18159;SDS011;9205;52.032;4.314;2023-02-24T03:47:41;5.47;;;0.80;;
18159;SDS011;9205;52.032;4.314;2023-02-24T03:50:12;2.57;;;0.70;;
18159;SDS011;9205;52.032;4.314;2023-02-24T03:52:54;2.63;;;0.80;;
18159;SDS011;9205;52.032;4.314;2023-02-24T03:55:46;1.47;;;0.80;;
18159;SDS011;9205;52.032;4.314;2023-02-24T03:58:46;3.90;;;0.90;;
18159;SDS011;9205;52.032;4.314;2023-02-24T04:01:36;2.53;;;1.20;;
18159;SDS011;9205;52.032;4.314;2023-02-24T04:04:25;1.70;;;0.93;;
18159;SDS011;9205;52.032;4.314;2023-02-24T04:07:27;1.30;;;0.83;;
18159;SDS011;9205;52.032;4.314;2023-02-24T04:10:07;1.43;;;0.73;;
18159;SDS011;9205;52.032;4.314;2023-02-24T04:12:56;5.37;;;0.80;;
18159;SDS011;9205;52.032;4.314;2023-02-24T04:15:39;3.00;;;1.17;;
18159;SDS011;9205;52.032;4.314;2023-02-24T04:18:27;0.80;;;0.67;;
18159;SDS011;9205;52.032;4.314;2023-02-24T04:20:58;2.10;;;1.00;;
18159;SDS011;9205;52.032;4.314;2023-02-24T04:23:34;4.30;;;0.90;;
18159;SDS011;9205;52.032;4.314;2023-02-24T04:26:09;1.67;;;1.07;;
18159;SDS011;9205;52.032;4.314;2023-02-24T04:28:42;2.57;;;1.07;;
18159;SDS011;9205;52.032;4.314;2023-02-24T04:31:14;3.60;;;1.07;;
18159;SDS011;9205;52.032;4.314;2023-02-24T04:33:48;3.03;;;1.07;;
18159;SDS011;9205;52.032;4.314;2023-02-24T04:36:22;3.50;;;1.30;;
18159;SDS011;9205;52.032;4.314;2023-02-24T04:38:50;2.40;;;0.97;;
18159;SDS011;9205;52.032;4.314;2023-02-24T04:41:22;2.80;;;1.60;;
18159;SDS011;9205;52.032;4.314;2023-02-24T04:43:56;4.70;;;1.10;;
18159;SDS011;9205;52.032;4.314;2023-02-24T04:46:26;3.40;;;1.17;;
18159;SDS011;9205;52.032;4.314;2023-02-24T04:49:00;2.83;;;1.10;;
18159;SDS011;9205;52.032;4.314;2023-02-24T04:51:31;3.00;;;1.20;;
18159;SDS011;9205;52.032;4.314;2023-02-24T04:53:59;2.20;;;0.90;;
18159;SDS011;9205;52.032;4.314;2023-02-24T04:56:30;6.87;;;1.47;;
18159;SDS011;9205;52.032;4.314;2023-02-24T04:59:01;2.50;;;1.03;;
18159;SDS011;9205;52.032;4.314;2023-02-24T05:01:29;6.33;;;1.80;;
18159;SDS011;9205;52.032;4.314;2023-02-24T05:04:04;2.90;;;1.10;;
18159;SDS011;9205;52.032;4.314;2023-02-24T05:06:33;3.33;;;1.30;;
18159;SDS011;9205;52.032;4.314;2023-02-24T05:09:08;5.13;;;1.40;;
18159;SDS011;9205;52.032;4.314;2023-02-24T05:11:42;1.53;;;1.00;;
18159;SDS011;9205;52.032;4.314;2023-02-24T05:14:20;7.63;;;1.30;;
18159;SDS011;9205;52.032;4.314;2023-02-24T05:16:49;2.53;;;1.10;;
18159;SDS011;9205;52.032;4.314;2023-02-24T05:19:18;2.70;;;1.40;;
18159;SDS011;9205;52.032;4.314;2023-02-24T05:22:12;5.23;;;1.17;;
18159;SDS011;9205;52.032;4.314;2023-02-24T05:24:42;4.93;;;1.30;;
18159;SDS011;9205;52.032;4.314;2023-02-24T05:27:13;3.43;;;1.70;;
18159;SDS011;9205;52.032;4.314;2023-02-24T05:29:46;2.00;;;0.90;;
18159;SDS011;9205;52.032;4.314;2023-02-24T05:32:16;1.53;;;1.17;;
18159;SDS011;9205;52.032;4.314;2023-02-24T05:34:44;2.90;;;1.40;;
18159;SDS011;9205;52.032;4.314;2023-02-24T05:37:12;1.30;;;0.90;;
18159;SDS011;9205;52.032;4.314;2023-02-24T05:39:40;6.00;;;1.30;;
18159;SDS011;9205;52.032;4.314;2023-02-24T05:42:08;1.73;;;1.10;;
18159;SDS011;9205;52.032;4.314;2023-02-24T05:44:38;3.70;;;1.00;;
18159;SDS011;9205;52.032;4.314;2023-02-24T05:47:06;4.57;;;1.17;;
18159;SDS011;9205;52.032;4.314;2023-02-24T05:49:39;6.00;;;1.53;;
18159;SDS011;9205;52.032;4.314;2023-02-24T05:52:12;1.10;;;1.00;;
18159;SDS011;9205;52.032;4.314;2023-02-24T05:55:06;3.57;;;1.13;;
18159;SDS011;9205;52.032;4.314;2023-02-24T05:57:46;1.40;;;1.10;;
18159;SDS011;9205;52.032;4.314;2023-02-24T06:00:20;4.77;;;1.00;;
18159;SDS011;9205;52.032;4.314;2023-02-24T06:02:50;1.80;;;0.90;;
18159;SDS011;9205;52.032;4.314;2023-02-24T06:05:18;6.60;;;1.33;;
18159;SDS011;9205;52.032;4.314;2023-02-24T06:07:58;12.07;;;1.27;;
18159;SDS011;9205;52.032;4.314;2023-02-24T06:10:31;6.53;;;1.13;;
18159;SDS011;9205;52.032;4.314;2023-02-24T06:13:00;2.27;;;0.97;;
18159;SDS011;9205;52.032;4.314;2023-02-24T06:15:32;4.97;;;1.03;;
18159;SDS011;9205;52.032;4.314;2023-02-24T06:18:01;1.27;;;1.07;;
18159;SDS011;9205;52.032;4.314;2023-02-24T06:20:32;4.10;;;1.37;;
18159;SDS011;9205;52.032;4.314;2023-02-24T06:22:59;3.30;;;0.93;;
18159;SDS011;9205;52.032;4.314;2023-02-24T06:25:34;4.77;;;1.07;;
18159;SDS011;9205;52.032;4.314;2023-02-24T06:28:06;3.80;;;1.10;;
18159;SDS011;9205;52.032;4.314;2023-02-24T06:30:36;4.63;;;0.90;;
18159;SDS011;9205;52.032;4.314;2023-02-24T06:33:06;5.13;;;1.10;;
18159;SDS011;9205;52.032;4.314;2023-02-24T06:35:40;4.33;;;1.10;;
18159;SDS011;9205;52.032;4.314;2023-02-24T06:38:11;2.93;;;1.30;;
18159;SDS011;9205;52.032;4.314;2023-02-24T06:40:39;10.77;;;1.87;;
18159;SDS011;9205;52.032;4.314;2023-02-24T06:43:11;8.07;;;1.80;;
18159;SDS011;9205;52.032;4.314;2023-02-24T06:45:44;2.70;;;1.27;;
18159;SDS011;9205;52.032;4.314;2023-02-24T06:48:18;0.80;;;0.80;;
18159;SDS011;9205;52.032;4.314;2023-02-24T06:50:47;2.80;;;1.20;;
18159;SDS011;9205;52.032;4.314;2023-02-24T06:53:19;3.97;;;1.10;;
18159;SDS011;9205;52.032;4.314;2023-02-24T06:55:48;5.27;;;1.50;;
18159;SDS011;9205;52.032;4.314;2023-02-24T06:58:16;7.77;;;1.30;;
18159;SDS011;9205;52.032;4.314;2023-02-24T07:00:55;2.73;;;1.20;;
18159;SDS011;9205;52.032;4.314;2023-02-24T07:03:24;4.23;;;1.30;;
18159;SDS011;9205;52.032;4.314;2023-02-24T07:06:04;3.70;;;1.13;;
18159;SDS011;9205;52.032;4.314;2023-02-24T07:08:47;4.20;;;1.10;;
18159;SDS011;9205;52.032;4.314;2023-02-24T07:11:25;3.90;;;1.20;;
18159;SDS011;9205;52.032;4.314;2023-02-24T07:14:00;8.57;;;1.80;;
18159;SDS011;9205;52.032;4.314;2023-02-24T07:16:49;6.90;;;1.47;;
18159;SDS011;9205;52.032;4.314;2023-02-24T07:19:19;3.17;;;1.47;;
18159;SDS011;9205;52.032;4.314;2023-02-24T07:21:50;9.97;;;1.67;;
18159;SDS011;9205;52.032;4.314;2023-02-24T07:24:24;4.40;;;1.10;;
18159;SDS011;9205;52.032;4.314;2023-02-24T07:27:01;5.10;;;1.50;;
18159;SDS011;9205;52.032;4.314;2023-02-24T07:29:31;4.30;;;1.40;;
18159;SDS011;9205;52.032;4.314;2023-02-24T07:32:03;6.20;;;1.47;;
18159;SDS011;9205;52.032;4.314;2023-02-24T07:34:34;2.50;;;1.30;;
18159;SDS011;9205;52.032;4.314;2023-02-24T07:37:36;1.97;;;1.30;;
18159;SDS011;9205;52.032;4.314;2023-02-24T07:40:12;3.53;;;1.40;;
18159;SDS011;9205;52.032;4.314;2023-02-24T07:42:41;4.57;;;1.70;;
18159;SDS011;9205;52.032;4.314;2023-02-24T07:45:12;5.27;;;1.57;;
18159;SDS011;9205;52.032;4.314;2023-02-24T07:47:42;2.53;;;1.27;;
18159;SDS011;9205;52.032;4.314;2023-02-24T07:50:12;1.87;;;0.90;;
18159;SDS011;9205;52.032;4.314;2023-02-24T07:52:42;3.17;;;1.73;;
18159;SDS011;9205;52.032;4.314;2023-02-24T07:55:12;10.87;;;2.00;;
18159;SDS011;9205;52.032;4.314;2023-02-24T07:57:41;2.20;;;1.57;;
18159;SDS011;9205;52.032;4.314;2023-02-24T08:00:14;3.77;;;1.43;;
18159;SDS011;9205;52.032;4.314;2023-02-24T08:02:46;1.30;;;1.20;;
18159;SDS011;9205;52.032;4.314;2023-02-24T08:05:18;14.63;;;2.13;;
18159;SDS011;9205;52.032;4.314;2023-02-24T08:08:00;5.03;;;1.30;;
18159;SDS011;9205;52.032;4.314;2023-02-24T08:10:30;8.23;;;1.33;;
18159;SDS011;9205;52.032;4.314;2023-02-24T08:13:04;12.77;;;1.67;;
18159;SDS011;9205;52.032;4.314;2023-02-24T08:15:36;4.60;;;1.60;;
18159;SDS011;9205;52.032;4.314;2023-02-24T08:18:10;2.47;;;1.17;;
18159;SDS011;9205;52.032;4.314;2023-02-24T08:20:53;5.57;;;1.93;;
18159;SDS011;9205;52.032;4.314;2023-02-24T08:23:32;2.90;;;1.20;;
18159;SDS011;9205;52.032;4.314;2023-02-24T08:26:10;2.43;;;1.13;;
18159;SDS011;9205;52.032;4.314;2023-02-24T08:28:40;3.93;;;1.50;;
18159;SDS011;9205;52.032;4.314;2023-02-24T08:31:08;3.07;;;1.53;;
18159;SDS011;9205;52.032;4.314;2023-02-24T08:33:42;3.80;;;1.60;;
18159;SDS011;9205;52.032;4.314;2023-02-24T08:36:10;8.53;;;1.43;;
18159;SDS011;9205;52.032;4.314;2023-02-24T08:38:44;3.23;;;1.87;;
18159;SDS011;9205;52.032;4.314;2023-02-24T08:41:17;7.27;;;1.67;;
18159;SDS011;9205;52.032;4.314;2023-02-24T08:44:06;5.77;;;1.83;;
18159;SDS011;9205;52.032;4.314;2023-02-24T08:46:36;1.77;;;1.30;;
18159;SDS011;9205;52.032;4.314;2023-02-24T08:49:15;6.23;;;1.20;;
18159;SDS011;9205;52.032;4.314;2023-02-24T08:51:45;7.27;;;1.27;;
18159;SDS011;9205;52.032;4.314;2023-02-24T08:54:18;7.40;;;1.50;;
18159;SDS011;9205;52.032;4.314;2023-02-24T08:56:52;3.33;;;1.30;;
18159;SDS011;9205;52.032;4.314;2023-02-24T08:59:33;3.30;;;1.07;;
18159;SDS011;9205;52.032;4.314;2023-02-24T09:02:18;5.60;;;1.60;;
18159;SDS011;9205;52.032;4.314;2023-02-24T09:04:56;5.87;;;1.30;;
18159;SDS011;9205;52.032;4.314;2023-02-24T09:07:35;4.37;;;1.37;;
18159;SDS011;9205;52.032;4.314;2023-02-24T09:10:10;6.30;;;1.70;;
18159;SDS011;9205;52.032;4.314;2023-02-24T09:15:35;4.87;;;1.47;;
18159;SDS011;9205;52.032;4.314;2023-02-24T09:18:09;5.40;;;1.57;;
18159;SDS011;9205;52.032;4.314;2023-02-24T09:20:41;6.13;;;1.63;;
18159;SDS011;9205;52.032;4.314;2023-02-24T09:23:38;9.97;;;1.63;;
18159;SDS011;9205;52.032;4.314;2023-02-24T09:26:19;12.30;;;2.67;;
18159;SDS011;9205;52.032;4.314;2023-02-24T09:28:50;6.73;;;1.83;;
18159;SDS011;9205;52.032;4.314;2023-02-24T09:31:21;5.10;;;2.17;;
18159;SDS011;9205;52.032;4.314;2023-02-24T09:34:05;7.07;;;1.77;;
18159;SDS011;9205;52.032;4.314;2023-02-24T09:39:49;8.17;;;2.50;;
18159;SDS011;9205;52.032;4.314;2023-02-24T09:42:51;9.03;;;2.80;;
18159;SDS011;9205;52.032;4.314;2023-02-24T09:45:27;5.93;;;2.77;;
18159;SDS011;9205;52.032;4.314;2023-02-24T09:48:08;7.23;;;2.60;;
18159;SDS011;9205;52.032;4.314;2023-02-24T09:51:09;12.67;;;3.20;;
18159;SDS011;9205;52.032;4.314;2023-02-24T09:53:48;7.43;;;3.07;;
18159;SDS011;9205;52.032;4.314;2023-02-24T09:56:29;7.93;;;3.53;;
18159;SDS011;9205;52.032;4.314;2023-02-24T09:59:10;7.07;;;2.97;;
18159;SDS011;9205;52.032;4.314;2023-02-24T10:01:51;10.43;;;3.30;;
18159;SDS011;9205;52.032;4.314;2023-02-24T10:04:32;6.23;;;3.40;;
18159;SDS011;9205;52.032;4.314;2023-02-24T10:07:32;10.43;;;4.50;;
18159;SDS011;9205;52.032;4.314;2023-02-24T10:10:12;9.60;;;2.90;;
18159;SDS011;9205;52.032;4.314;2023-02-24T10:12:55;8.50;;;4.37;;
18159;SDS011;9205;52.032;4.314;2023-02-24T10:15:40;11.90;;;3.67;;
18159;SDS011;9205;52.032;4.314;2023-02-24T10:18:26;8.70;;;4.30;;
18159;SDS011;9205;52.032;4.314;2023-02-24T10:21:05;8.13;;;3.63;;
18159;SDS011;9205;52.032;4.314;2023-02-24T10:24:00;8.20;;;3.90;;
18159;SDS011;9205;52.032;4.314;2023-02-24T10:26:42;8.60;;;3.77;;
18159;SDS011;9205;52.032;4.314;2023-02-24T10:29:21;9.87;;;3.90;;
18159;SDS011;9205;52.032;4.314;2023-02-24T10:32:06;8.37;;;4.03;;
18159;SDS011;9205;52.032;4.314;2023-02-24T10:34:47;13.33;;;3.97;;
18159;SDS011;9205;52.032;4.314;2023-02-24T10:37:19;6.40;;;3.73;;
18159;SDS011;9205;52.032;4.314;2023-02-24T10:39:54;6.27;;;4.13;;
18159;SDS011;9205;52.032;4.314;2023-02-24T10:42:26;10.03;;;4.00;;
18159;SDS011;9205;52.032;4.314;2023-02-24T10:45:06;6.57;;;3.47;;
18159;SDS011;9205;52.032;4.314;2023-02-24T10:47:48;7.70;;;4.43;;
18159;SDS011;9205;52.032;4.314;2023-02-24T10:50:22;7.77;;;3.73;;
18159;SDS011;9205;52.032;4.314;2023-02-24T10:53:00;5.70;;;3.40;;
18159;SDS011;9205;52.032;4.314;2023-02-24T10:55:50;5.87;;;3.37;;
18159;SDS011;9205;52.032;4.314;2023-02-24T10:58:41;6.63;;;3.77;;
18159;SDS011;9205;52.032;4.314;2023-02-24T11:01:44;5.83;;;3.70;;
18159;SDS011;9205;52.032;4.314;2023-02-24T11:04:30;7.20;;;4.07;;
18159;SDS011;9205;52.032;4.314;2023-02-24T11:07:15;5.70;;;3.47;;
18159;SDS011;9205;52.032;4.314;2023-02-24T11:09:59;8.03;;;3.70;;
18159;SDS011;9205;52.032;4.314;2023-02-24T11:12:37;6.33;;;3.37;;
18159;SDS011;9205;52.032;4.314;2023-02-24T11:15:49;6.67;;;3.70;;
18159;SDS011;9205;52.032;4.314;2023-02-24T11:18:44;10.07;;;4.03;;
18159;SDS011;9205;52.032;4.314;2023-02-24T11:21:17;5.67;;;3.40;;
18159;SDS011;9205;52.032;4.314;2023-02-24T11:23:48;9.33;;;3.43;;
18159;SDS011;9205;52.032;4.314;2023-02-24T11:26:30;7.03;;;3.73;;
18159;SDS011;9205;52.032;4.314;2023-02-24T11:29:16;6.37;;;3.87;;
18159;SDS011;9205;52.032;4.314;2023-02-24T11:32:16;8.77;;;4.00;;
18159;SDS011;9205;52.032;4.314;2023-02-24T11:35:04;5.27;;;3.60;;
18159;SDS011;9205;52.032;4.314;2023-02-24T11:37:43;9.77;;;4.10;;
18159;SDS011;9205;52.032;4.314;2023-02-24T11:40:21;12.27;;;4.37;;
18159;SDS011;9205;52.032;4.314;2023-02-24T11:42:54;10.63;;;4.07;;
18159;SDS011;9205;52.032;4.314;2023-02-24T11:45:30;6.80;;;3.97;;
18159;SDS011;9205;52.032;4.314;2023-02-24T11:48:08;14.83;;;4.20;;
18159;SDS011;9205;52.032;4.314;2023-02-24T11:50:45;13.70;;;4.07;;
18159;SDS011;9205;52.032;4.314;2023-02-24T11:53:31;14.93;;;3.77;;
18159;SDS011;9205;52.032;4.314;2023-02-24T11:56:10;10.50;;;3.73;;
18159;SDS011;9205;52.032;4.314;2023-02-24T11:58:45;11.47;;;3.77;;
18159;SDS011;9205;52.032;4.314;2023-02-24T12:01:26;11.10;;;3.60;;
18159;SDS011;9205;52.032;4.314;2023-02-24T12:04:08;16.50;;;3.80;;
18159;SDS011;9205;52.032;4.314;2023-02-24T12:06:46;9.43;;;3.33;;
18159;SDS011;9205;52.032;4.314;2023-02-24T12:09:25;12.53;;;3.23;;
18159;SDS011;9205;52.032;4.314;2023-02-24T12:12:02;13.13;;;3.37;;
18159;SDS011;9205;52.032;4.314;2023-02-24T12:14:44;15.93;;;3.53;;
18159;SDS011;9205;52.032;4.314;2023-02-24T12:17:27;7.30;;;2.93;;
18159;SDS011;9205;52.032;4.314;2023-02-24T12:20:25;8.50;;;2.47;;
18159;SDS011;9205;52.032;4.314;2023-02-24T12:23:21;7.00;;;2.40;;
18159;SDS011;9205;52.032;4.314;2023-02-24T12:26:06;7.03;;;2.73;;
18159;SDS011;9205;52.032;4.314;2023-02-24T12:32:00;7.57;;;2.00;;
18159;SDS011;9205;52.032;4.314;2023-02-24T12:34:49;11.87;;;2.23;;
18159;SDS011;9205;52.032;4.314;2023-02-24T12:37:54;8.87;;;2.13;;
18159;SDS011;9205;52.032;4.314;2023-02-24T12:40:47;8.07;;;1.77;;
18159;SDS011;9205;52.032;4.314;2023-02-24T12:43:34;3.87;;;1.50;;
18159;SDS011;9205;52.032;4.314;2023-02-24T12:46:20;14.40;;;2.70;;
18159;SDS011;9205;52.032;4.314;2023-02-24T12:49:03;10.90;;;1.70;;
18159;SDS011;9205;52.032;4.314;2023-02-24T12:52:12;11.43;;;1.60;;
18159;SDS011;9205;52.032;4.314;2023-02-24T12:54:55;10.27;;;2.00;;
18159;SDS011;9205;52.032;4.314;2023-02-24T12:57:37;11.43;;;1.77;;
18159;SDS011;9205;52.032;4.314;2023-02-24T13:00:28;6.70;;;2.17;;
18159;SDS011;9205;52.032;4.314;2023-02-24T13:03:18;22.77;;;2.43;;
18159;SDS011;9205;52.032;4.314;2023-02-24T13:06:15;7.53;;;2.00;;
18159;SDS011;9205;52.032;4.314;2023-02-24T13:09:00;13.83;;;2.00;;
18159;SDS011;9205;52.032;4.314;2023-02-24T13:12:08;11.13;;;2.13;;
18159;SDS011;9205;52.032;4.314;2023-02-24T13:14:49;10.93;;;2.17;;
18159;SDS011;9205;52.032;4.314;2023-02-24T13:17:19;12.67;;;2.20;;
18159;SDS011;9205;52.032;4.314;2023-02-24T13:19:53;13.30;;;2.30;;
18159;SDS011;9205;52.032;4.314;2023-02-24T13:22:26;11.73;;;1.50;;
18159;SDS011;9205;52.032;4.314;2023-02-24T13:25:09;14.90;;;1.70;;
18159;SDS011;9205;52.032;4.314;2023-02-24T13:27:56;14.93;;;2.20;;
18159;SDS011;9205;52.032;4.314;2023-02-24T13:30:35;16.33;;;1.97;;
18159;SDS011;9205;52.032;4.314;2023-02-24T13:33:22;7.23;;;2.13;;
18159;SDS011;9205;52.032;4.314;2023-02-24T13:36:13;16.50;;;2.83;;
18159;SDS011;9205;52.032;4.314;2023-02-24T13:38:51;10.77;;;1.63;;
18159;SDS011;9205;52.032;4.314;2023-02-24T13:41:49;19.53;;;2.47;;
18159;SDS011;9205;52.032;4.314;2023-02-24T13:44:34;11.87;;;1.90;;
18159;SDS011;9205;52.032;4.314;2023-02-24T13:50:43;14.07;;;2.00;;
18159;SDS011;9205;52.032;4.314;2023-02-24T13:53:46;10.00;;;1.47;;
18159;SDS011;9205;52.032;4.314;2023-02-24T13:56:39;5.67;;;1.50;;
18159;SDS011;9205;52.032;4.314;2023-02-24T13:59:31;9.53;;;1.47;;
18159;SDS011;9205;52.032;4.314;2023-02-24T14:02:28;7.53;;;2.07;;
18159;SDS011;9205;52.032;4.314;2023-02-24T14:05:09;11.30;;;1.70;;
18159;SDS011;9205;52.032;4.314;2023-02-24T14:08:00;8.13;;;1.37;;
18159;SDS011;9205;52.032;4.314;2023-02-24T14:10:30;4.97;;;1.57;;
18159;SDS011;9205;52.032;4.314;2023-02-24T14:13:05;13.33;;;1.60;;
18159;SDS011;9205;52.032;4.314;2023-02-24T14:16:03;9.10;;;1.43;;
18159;SDS011;9205;52.032;4.314;2023-02-24T14:18:35;11.27;;;1.80;;
18159;SDS011;9205;52.032;4.314;2023-02-24T14:21:03;7.60;;;1.70;;
18159;SDS011;9205;52.032;4.314;2023-02-24T14:23:32;5.03;;;1.13;;
18159;SDS011;9205;52.032;4.314;2023-02-24T14:26:04;5.97;;;1.23;;
18159;SDS011;9205;52.032;4.314;2023-02-24T14:28:42;3.00;;;1.23;;
18159;SDS011;9205;52.032;4.314;2023-02-24T14:31:23;8.17;;;1.37;;
18159;SDS011;9205;52.032;4.314;2023-02-24T14:33:57;6.43;;;1.80;;
18159;SDS011;9205;52.032;4.314;2023-02-24T14:36:29;6.43;;;1.33;;
18159;SDS011;9205;52.032;4.314;2023-02-24T14:39:19;8.30;;;1.37;;
18159;SDS011;9205;52.032;4.314;2023-02-24T14:42:02;6.37;;;1.60;;
18159;SDS011;9205;52.032;4.314;2023-02-24T14:44:44;11.63;;;2.10;;
18159;SDS011;9205;52.032;4.314;2023-02-24T14:47:39;9.70;;;1.80;;
18159;SDS011;9205;52.032;4.314;2023-02-24T14:50:16;4.03;;;1.27;;
18159;SDS011;9205;52.032;4.314;2023-02-24T14:52:54;2.23;;;1.00;;
18159;SDS011;9205;52.032;4.314;2023-02-24T14:55:40;2.70;;;1.20;;
18159;SDS011;9205;52.032;4.314;2023-02-24T14:58:25;6.93;;;1.03;;
18159;SDS011;9205;52.032;4.314;2023-02-24T15:01:17;6.13;;;1.17;;
18159;SDS011;9205;52.032;4.314;2023-02-24T15:04:08;6.17;;;1.00;;
18159;SDS011;9205;52.032;4.314;2023-02-24T15:06:41;8.57;;;1.20;;
18159;SDS011;9205;52.032;4.314;2023-02-24T15:09:14;7.83;;;1.50;;
18159;SDS011;9205;52.032;4.314;2023-02-24T15:11:46;6.80;;;1.40;;
18159;SDS011;9205;52.032;4.314;2023-02-24T15:14:33;2.37;;;1.10;;
18159;SDS011;9205;52.032;4.314;2023-02-24T15:17:02;9.07;;;1.50;;
18159;SDS011;9205;52.032;4.314;2023-02-24T15:19:46;3.90;;;1.07;;
18159;SDS011;9205;52.032;4.314;2023-02-24T15:22:22;2.80;;;1.03;;
18159;SDS011;9205;52.032;4.314;2023-02-24T15:25:11;2.20;;;1.27;;
18159;SDS011;9205;52.032;4.314;2023-02-24T15:27:52;4.93;;;0.80;;
18159;SDS011;9205;52.032;4.314;2023-02-24T15:30:31;3.70;;;0.90;;
18159;SDS011;9205;52.032;4.314;2023-02-24T15:33:02;10.97;;;1.13;;
18159;SDS011;9205;52.032;4.314;2023-02-24T15:35:38;2.10;;;0.77;;
18159;SDS011;9205;52.032;4.314;2023-02-24T15:38:19;4.40;;;1.10;;
18159;SDS011;9205;52.032;4.314;2023-02-24T15:40:54;1.03;;;0.80;;
18159;SDS011;9205;52.032;4.314;2023-02-24T15:43:31;4.50;;;1.00;;
18159;SDS011;9205;52.032;4.314;2023-02-24T15:46:14;2.23;;;0.80;;
18159;SDS011;9205;52.032;4.314;2023-02-24T15:48:52;2.63;;;0.90;;
18159;SDS011;9205;52.032;4.314;2023-02-24T15:51:28;4.83;;;1.00;;
18159;SDS011;9205;52.032;4.314;2023-02-24T15:54:13;6.13;;;0.90;;
18159;SDS011;9205;52.032;4.314;2023-02-24T15:56:49;5.67;;;1.30;;
18159;SDS011;9205;52.032;4.314;2023-02-24T15:59:28;2.53;;;1.00;;
18159;SDS011;9205;52.032;4.314;2023-02-24T16:02:09;4.53;;;0.90;;
18159;SDS011;9205;52.032;4.314;2023-02-24T16:04:43;8.87;;;1.67;;
18159;SDS011;9205;52.032;4.314;2023-02-24T16:07:15;5.60;;;0.90;;
18159;SDS011;9205;52.032;4.314;2023-02-24T16:09:49;5.20;;;1.00;;
18159;SDS011;9205;52.032;4.314;2023-02-24T16:12:21;6.50;;;0.80;;
18159;SDS011;9205;52.032;4.314;2023-02-24T16:14:59;2.97;;;0.80;;
18159;SDS011;9205;52.032;4.314;2023-02-24T16:17:34;5.30;;;1.00;;
18159;SDS011;9205;52.032;4.314;2023-02-24T16:20:09;1.50;;;0.97;;
18159;SDS011;9205;52.032;4.314;2023-02-24T16:22:54;3.90;;;1.13;;
18159;SDS011;9205;52.032;4.314;2023-02-24T16:25:29;5.10;;;1.10;;
18159;SDS011;9205;52.032;4.314;2023-02-24T16:28:18;5.00;;;1.07;;
18159;SDS011;9205;52.032;4.314;2023-02-24T16:30:52;1.57;;;0.77;;
18159;SDS011;9205;52.032;4.314;2023-02-24T16:33:23;2.77;;;0.80;;
18159;SDS011;9205;52.032;4.314;2023-02-24T16:35:52;11.47;;;1.27;;
18159;SDS011;9205;52.032;4.314;2023-02-24T16:38:23;2.37;;;1.20;;